sensor_id;sensor_type;location;lat;lon;timestamp;P1;durP1;ratioP1;P2;durP2;ratioP2
43042;SDS011;28667;50.758;6.096;2023-05-21T00:01:41;7.97;;;4.78;;
43042;SDS011;28667;50.758;6.096;2023-05-21T00:04:07;9.95;;;4.43;;
43042;SDS011;28667;50.758;6.096;2023-05-21T00:06:33;9.80;;;5.88;;
43042;SDS011;28667;50.758;6.096;2023-05-21T00:09:02;7.57;;;5.15;;
43042;SDS011;28667;50.758;6.096;2023-05-21T00:11:29;9.05;;;5.63;;
43042;SDS011;28667;50.758;6.096;2023-05-21T00:13:56;8.30;;;5.65;;
43042;SDS011;28667;50.758;6.096;2023-05-21T00:16:22;10.45;;;6.43;;
43042;SDS011;28667;50.758;6.096;2023-05-21T00:18:48;8.07;;;5.25;;
43042;SDS011;28667;50.758;6.096;2023-05-21T00:21:16;7.85;;;5.80;;
43042;SDS011;28667;50.758;6.096;2023-05-21T00:23:46;9.60;;;4.95;;
43042;SDS011;28667;50.758;6.096;2023-05-21T00:26:12;9.48;;;5.55;;
43042;SDS011;28667;50.758;6.096;2023-05-21T00:28:40;6.32;;;4.70;;
43042;SDS011;28667;50.758;6.096;2023-05-21T00:31:06;10.15;;;5.22;;
43042;SDS011;28667;50.758;6.096;2023-05-21T00:33:31;9.30;;;5.28;;
43042;SDS011;28667;50.758;6.096;2023-05-21T00:35:58;10.93;;;6.25;;
43042;SDS011;28667;50.758;6.096;2023-05-21T00:38:23;10.68;;;6.53;;
43042;SDS011;28667;50.758;6.096;2023-05-21T00:40:51;11.07;;;6.45;;
43042;SDS011;28667;50.758;6.096;2023-05-21T00:43:17;9.68;;;6.32;;
43042;SDS011;28667;50.758;6.096;2023-05-21T00:45:43;9.18;;;5.85;;
43042;SDS011;28667;50.758;6.096;2023-05-21T00:48:10;11.25;;;6.53;;
43042;SDS011;28667;50.758;6.096;2023-05-21T00:50:39;9.95;;;5.75;;
43042;SDS011;28667;50.758;6.096;2023-05-21T00:53:06;7.40;;;5.05;;
43042;SDS011;28667;50.758;6.096;2023-05-21T00:55:35;7.25;;;5.15;;
43042;SDS011;28667;50.758;6.096;2023-05-21T00:58:01;7.70;;;4.85;;
43042;SDS011;28667;50.758;6.096;2023-05-21T01:00:29;7.10;;;5.47;;
43042;SDS011;28667;50.758;6.096;2023-05-21T01:02:57;9.93;;;5.10;;
43042;SDS011;28667;50.758;6.096;2023-05-21T01:05:23;8.20;;;5.30;;
43042;SDS011;28667;50.758;6.096;2023-05-21T01:07:49;7.75;;;5.22;;
43042;SDS011;28667;50.758;6.096;2023-05-21T01:10:14;8.35;;;5.05;;
43042;SDS011;28667;50.758;6.096;2023-05-21T01:12:41;8.65;;;5.70;;
43042;SDS011;28667;50.758;6.096;2023-05-21T01:15:09;6.22;;;5.05;;
43042;SDS011;28667;50.758;6.096;2023-05-21T01:17:35;8.95;;;5.65;;
43042;SDS011;28667;50.758;6.096;2023-05-21T01:20:03;8.23;;;5.60;;
43042;SDS011;28667;50.758;6.096;2023-05-21T01:22:49;8.60;;;5.47;;
43042;SDS011;28667;50.758;6.096;2023-05-21T01:25:16;8.40;;;5.32;;
43042;SDS011;28667;50.758;6.096;2023-05-21T01:27:42;6.80;;;4.95;;
43042;SDS011;28667;50.758;6.096;2023-05-21T01:30:08;8.32;;;5.78;;
43042;SDS011;28667;50.758;6.096;2023-05-21T01:32:47;6.60;;;4.90;;
43042;SDS011;28667;50.758;6.096;2023-05-21T01:35:16;7.03;;;5.65;;
43042;SDS011;28667;50.758;6.096;2023-05-21T01:40:42;10.50;;;5.53;;
43042;SDS011;28667;50.758;6.096;2023-05-21T01:43:12;7.10;;;5.35;;
43042;SDS011;28667;50.758;6.096;2023-05-21T01:45:40;7.22;;;5.70;;
43042;SDS011;28667;50.758;6.096;2023-05-21T01:48:08;8.63;;;6.03;;
43042;SDS011;28667;50.758;6.096;2023-05-21T01:50:36;9.35;;;5.60;;
43042;SDS011;28667;50.758;6.096;2023-05-21T01:53:03;6.57;;;4.78;;
43042;SDS011;28667;50.758;6.096;2023-05-21T01:55:30;9.88;;;5.97;;
43042;SDS011;28667;50.758;6.096;2023-05-21T01:57:57;8.27;;;5.68;;
43042;SDS011;28667;50.758;6.096;2023-05-21T02:00:24;9.25;;;4.88;;
43042;SDS011;28667;50.758;6.096;2023-05-21T02:02:56;8.48;;;5.60;;
43042;SDS011;28667;50.758;6.096;2023-05-21T02:05:22;8.13;;;5.53;;
43042;SDS011;28667;50.758;6.096;2023-05-21T02:07:49;8.80;;;5.43;;
43042;SDS011;28667;50.758;6.096;2023-05-21T02:10:16;6.55;;;5.50;;
43042;SDS011;28667;50.758;6.096;2023-05-21T02:12:42;7.60;;;5.38;;
43042;SDS011;28667;50.758;6.096;2023-05-21T02:15:08;7.65;;;5.57;;
43042;SDS011;28667;50.758;6.096;2023-05-21T02:17:33;10.07;;;5.90;;
43042;SDS011;28667;50.758;6.096;2023-05-21T02:20:00;8.40;;;6.20;;
43042;SDS011;28667;50.758;6.096;2023-05-21T02:25:05;10.73;;;5.60;;
43042;SDS011;28667;50.758;6.096;2023-05-21T02:27:32;13.35;;;6.22;;
43042;SDS011;28667;50.758;6.096;2023-05-21T02:29:59;16.13;;;7.32;;
43042;SDS011;28667;50.758;6.096;2023-05-21T02:32:25;14.75;;;7.75;;
43042;SDS011;28667;50.758;6.096;2023-05-21T02:34:51;14.93;;;8.77;;
43042;SDS011;28667;50.758;6.096;2023-05-21T02:37:18;14.48;;;8.27;;
43042;SDS011;28667;50.758;6.096;2023-05-21T02:39:44;16.48;;;8.70;;
43042;SDS011;28667;50.758;6.096;2023-05-21T02:42:10;15.68;;;8.18;;
43042;SDS011;28667;50.758;6.096;2023-05-21T02:44:35;13.00;;;8.00;;
43042;SDS011;28667;50.758;6.096;2023-05-21T02:47:01;14.90;;;8.15;;
43042;SDS011;28667;50.758;6.096;2023-05-21T02:49:27;14.70;;;7.35;;
43042;SDS011;28667;50.758;6.096;2023-05-21T02:51:53;14.00;;;8.20;;
43042;SDS011;28667;50.758;6.096;2023-05-21T02:54:19;15.60;;;8.25;;
43042;SDS011;28667;50.758;6.096;2023-05-21T02:56:45;14.75;;;8.80;;
43042;SDS011;28667;50.758;6.096;2023-05-21T02:59:11;18.40;;;7.72;;
43042;SDS011;28667;50.758;6.096;2023-05-21T03:01:37;14.30;;;8.43;;
43042;SDS011;28667;50.758;6.096;2023-05-21T03:04:05;15.63;;;8.23;;
43042;SDS011;28667;50.758;6.096;2023-05-21T03:06:31;14.60;;;8.10;;
43042;SDS011;28667;50.758;6.096;2023-05-21T03:08:56;14.88;;;8.05;;
43042;SDS011;28667;50.758;6.096;2023-05-21T03:11:22;17.15;;;9.15;;
43042;SDS011;28667;50.758;6.096;2023-05-21T03:13:48;17.90;;;9.80;;
43042;SDS011;28667;50.758;6.096;2023-05-21T03:16:13;17.05;;;8.95;;
43042;SDS011;28667;50.758;6.096;2023-05-21T03:18:39;11.95;;;6.88;;
43042;SDS011;28667;50.758;6.096;2023-05-21T03:21:05;14.02;;;7.78;;
43042;SDS011;28667;50.758;6.096;2023-05-21T03:23:31;13.52;;;7.85;;
43042;SDS011;28667;50.758;6.096;2023-05-21T03:25:57;18.20;;;8.38;;
43042;SDS011;28667;50.758;6.096;2023-05-21T03:28:23;17.83;;;8.38;;
43042;SDS011;28667;50.758;6.096;2023-05-21T03:30:49;11.52;;;7.22;;
43042;SDS011;28667;50.758;6.096;2023-05-21T03:33:33;12.43;;;6.82;;
43042;SDS011;28667;50.758;6.096;2023-05-21T03:36:02;16.13;;;6.70;;
43042;SDS011;28667;50.758;6.096;2023-05-21T03:38:31;14.15;;;7.40;;
43042;SDS011;28667;50.758;6.096;2023-05-21T03:40:57;17.42;;;8.27;;
43042;SDS011;28667;50.758;6.096;2023-05-21T03:43:23;20.15;;;7.55;;
43042;SDS011;28667;50.758;6.096;2023-05-21T03:45:49;17.25;;;7.80;;
43042;SDS011;28667;50.758;6.096;2023-05-21T03:48:38;9.75;;;6.40;;
43042;SDS011;28667;50.758;6.096;2023-05-21T03:51:04;12.48;;;6.93;;
43042;SDS011;28667;50.758;6.096;2023-05-21T03:53:32;16.15;;;8.57;;
43042;SDS011;28667;50.758;6.096;2023-05-21T03:55:58;16.17;;;8.15;;
43042;SDS011;28667;50.758;6.096;2023-05-21T03:58:23;17.05;;;8.10;;
43042;SDS011;28667;50.758;6.096;2023-05-21T04:00:51;15.07;;;8.18;;
43042;SDS011;28667;50.758;6.096;2023-05-21T04:03:17;17.52;;;9.10;;
43042;SDS011;28667;50.758;6.096;2023-05-21T04:05:43;16.00;;;7.72;;
43042;SDS011;28667;50.758;6.096;2023-05-21T04:08:09;11.32;;;7.25;;
43042;SDS011;28667;50.758;6.096;2023-05-21T04:10:35;15.88;;;8.27;;
43042;SDS011;28667;50.758;6.096;2023-05-21T04:13:01;14.88;;;8.40;;
43042;SDS011;28667;50.758;6.096;2023-05-21T04:15:27;18.58;;;9.50;;
43042;SDS011;28667;50.758;6.096;2023-05-21T04:17:53;18.48;;;9.30;;
43042;SDS011;28667;50.758;6.096;2023-05-21T04:20:19;15.00;;;7.93;;
43042;SDS011;28667;50.758;6.096;2023-05-21T04:22:45;19.58;;;8.68;;
43042;SDS011;28667;50.758;6.096;2023-05-21T04:25:12;18.10;;;9.02;;
43042;SDS011;28667;50.758;6.096;2023-05-21T04:27:38;18.38;;;9.60;;
43042;SDS011;28667;50.758;6.096;2023-05-21T04:30:05;19.83;;;10.23;;
43042;SDS011;28667;50.758;6.096;2023-05-21T04:32:33;15.38;;;8.70;;
43042;SDS011;28667;50.758;6.096;2023-05-21T04:34:59;13.18;;;8.32;;
43042;SDS011;28667;50.758;6.096;2023-05-21T04:37:26;14.75;;;8.25;;
43042;SDS011;28667;50.758;6.096;2023-05-21T04:39:56;18.13;;;9.32;;
43042;SDS011;28667;50.758;6.096;2023-05-21T04:42:23;11.60;;;7.68;;
43042;SDS011;28667;50.758;6.096;2023-05-21T04:44:50;13.25;;;8.05;;
43042;SDS011;28667;50.758;6.096;2023-05-21T04:47:16;12.32;;;7.57;;
43042;SDS011;28667;50.758;6.096;2023-05-21T04:49:42;12.25;;;6.65;;
43042;SDS011;28667;50.758;6.096;2023-05-21T04:52:09;10.02;;;6.40;;
43042;SDS011;28667;50.758;6.096;2023-05-21T04:54:35;12.52;;;8.00;;
43042;SDS011;28667;50.758;6.096;2023-05-21T04:57:03;16.02;;;7.55;;
43042;SDS011;28667;50.758;6.096;2023-05-21T04:59:32;13.20;;;7.65;;
43042;SDS011;28667;50.758;6.096;2023-05-21T05:01:58;15.30;;;7.95;;
43042;SDS011;28667;50.758;6.096;2023-05-21T05:04:24;12.25;;;7.82;;
43042;SDS011;28667;50.758;6.096;2023-05-21T05:06:49;11.07;;;6.90;;
43042;SDS011;28667;50.758;6.096;2023-05-21T05:09:16;14.70;;;6.97;;
43042;SDS011;28667;50.758;6.096;2023-05-21T05:11:43;13.20;;;7.18;;
43042;SDS011;28667;50.758;6.096;2023-05-21T05:14:09;12.77;;;7.60;;
43042;SDS011;28667;50.758;6.096;2023-05-21T05:16:35;16.73;;;8.30;;
43042;SDS011;28667;50.758;6.096;2023-05-21T05:19:00;13.90;;;7.82;;
43042;SDS011;28667;50.758;6.096;2023-05-21T05:21:27;13.23;;;7.38;;
43042;SDS011;28667;50.758;6.096;2023-05-21T05:23:53;14.00;;;7.75;;
43042;SDS011;28667;50.758;6.096;2023-05-21T05:26:24;13.13;;;7.57;;
43042;SDS011;28667;50.758;6.096;2023-05-21T05:28:50;13.25;;;6.68;;
43042;SDS011;28667;50.758;6.096;2023-05-21T05:31:16;16.65;;;8.10;;
43042;SDS011;28667;50.758;6.096;2023-05-21T05:33:42;14.93;;;7.68;;
43042;SDS011;28667;50.758;6.096;2023-05-21T05:36:10;15.45;;;7.88;;
43042;SDS011;28667;50.758;6.096;2023-05-21T05:38:36;12.50;;;7.07;;
43042;SDS011;28667;50.758;6.096;2023-05-21T05:41:02;11.50;;;6.78;;
43042;SDS011;28667;50.758;6.096;2023-05-21T05:43:28;12.50;;;7.85;;
43042;SDS011;28667;50.758;6.096;2023-05-21T05:45:56;10.82;;;6.70;;
43042;SDS011;28667;50.758;6.096;2023-05-21T05:48:22;12.07;;;6.00;;
43042;SDS011;28667;50.758;6.096;2023-05-21T05:50:48;9.80;;;5.57;;
43042;SDS011;28667;50.758;6.096;2023-05-21T05:53:13;12.13;;;6.57;;
43042;SDS011;28667;50.758;6.096;2023-05-21T05:55:39;10.35;;;6.47;;
43042;SDS011;28667;50.758;6.096;2023-05-21T05:58:05;9.52;;;6.20;;
43042;SDS011;28667;50.758;6.096;2023-05-21T06:00:45;10.88;;;6.75;;
43042;SDS011;28667;50.758;6.096;2023-05-21T06:03:11;13.95;;;7.22;;
43042;SDS011;28667;50.758;6.096;2023-05-21T06:05:37;10.23;;;6.97;;
43042;SDS011;28667;50.758;6.096;2023-05-21T06:08:03;10.50;;;7.10;;
43042;SDS011;28667;50.758;6.096;2023-05-21T06:10:29;10.23;;;6.63;;
43042;SDS011;28667;50.758;6.096;2023-05-21T06:12:55;9.30;;;6.90;;
43042;SDS011;28667;50.758;6.096;2023-05-21T06:15:20;8.60;;;6.57;;
43042;SDS011;28667;50.758;6.096;2023-05-21T06:17:46;8.85;;;5.93;;
43042;SDS011;28667;50.758;6.096;2023-05-21T06:20:13;10.52;;;6.22;;
43042;SDS011;28667;50.758;6.096;2023-05-21T06:22:40;11.57;;;6.30;;
43042;SDS011;28667;50.758;6.096;2023-05-21T06:25:07;9.50;;;5.80;;
43042;SDS011;28667;50.758;6.096;2023-05-21T06:27:36;11.52;;;6.20;;
43042;SDS011;28667;50.758;6.096;2023-05-21T06:30:06;8.98;;;6.07;;
43042;SDS011;28667;50.758;6.096;2023-05-21T06:32:32;9.88;;;5.85;;
43042;SDS011;28667;50.758;6.096;2023-05-21T06:34:58;9.23;;;5.97;;
43042;SDS011;28667;50.758;6.096;2023-05-21T06:37:24;9.73;;;5.60;;
43042;SDS011;28667;50.758;6.096;2023-05-21T06:39:50;14.07;;;6.35;;
43042;SDS011;28667;50.758;6.096;2023-05-21T06:42:16;8.73;;;5.55;;
43042;SDS011;28667;50.758;6.096;2023-05-21T06:44:52;9.55;;;6.25;;
43042;SDS011;28667;50.758;6.096;2023-05-21T06:47:26;11.30;;;6.57;;
43042;SDS011;28667;50.758;6.096;2023-05-21T06:49:52;9.20;;;5.25;;
43042;SDS011;28667;50.758;6.096;2023-05-21T06:52:17;9.60;;;5.60;;
43042;SDS011;28667;50.758;6.096;2023-05-21T06:54:43;10.43;;;5.70;;
43042;SDS011;28667;50.758;6.096;2023-05-21T06:57:09;5.78;;;4.47;;
43042;SDS011;28667;50.758;6.096;2023-05-21T06:59:35;9.60;;;5.70;;
43042;SDS011;28667;50.758;6.096;2023-05-21T07:02:01;8.70;;;5.93;;
43042;SDS011;28667;50.758;6.096;2023-05-21T07:04:27;7.30;;;4.88;;
43042;SDS011;28667;50.758;6.096;2023-05-21T07:06:53;8.27;;;5.15;;
43042;SDS011;28667;50.758;6.096;2023-05-21T07:09:19;7.30;;;4.88;;
43042;SDS011;28667;50.758;6.096;2023-05-21T07:11:45;8.35;;;5.53;;
43042;SDS011;28667;50.758;6.096;2023-05-21T07:14:14;7.90;;;5.07;;
43042;SDS011;28667;50.758;6.096;2023-05-21T07:16:39;7.40;;;4.57;;
43042;SDS011;28667;50.758;6.096;2023-05-21T07:19:06;7.07;;;5.10;;
43042;SDS011;28667;50.758;6.096;2023-05-21T07:21:32;7.55;;;4.75;;
43042;SDS011;28667;50.758;6.096;2023-05-21T07:23:58;8.27;;;6.18;;
43042;SDS011;28667;50.758;6.096;2023-05-21T07:26:23;11.02;;;6.07;;
43042;SDS011;28667;50.758;6.096;2023-05-21T07:28:50;7.00;;;5.22;;
43042;SDS011;28667;50.758;6.096;2023-05-21T07:31:16;12.43;;;6.80;;
43042;SDS011;28667;50.758;6.096;2023-05-21T07:33:45;9.82;;;5.93;;
43042;SDS011;28667;50.758;6.096;2023-05-21T07:36:12;11.95;;;5.53;;
43042;SDS011;28667;50.758;6.096;2023-05-21T07:38:38;10.18;;;6.00;;
43042;SDS011;28667;50.758;6.096;2023-05-21T07:41:05;9.82;;;6.63;;
43042;SDS011;28667;50.758;6.096;2023-05-21T07:43:31;8.27;;;5.20;;
43042;SDS011;28667;50.758;6.096;2023-05-21T07:45:57;10.27;;;5.45;;
43042;SDS011;28667;50.758;6.096;2023-05-21T07:48:24;9.85;;;5.32;;
43042;SDS011;28667;50.758;6.096;2023-05-21T07:50:54;7.80;;;4.68;;
43042;SDS011;28667;50.758;6.096;2023-05-21T07:53:22;8.25;;;5.25;;
43042;SDS011;28667;50.758;6.096;2023-05-21T07:55:48;8.20;;;5.32;;
43042;SDS011;28667;50.758;6.096;2023-05-21T07:58:17;10.48;;;6.43;;
43042;SDS011;28667;50.758;6.096;2023-05-21T08:00:44;7.65;;;5.25;;
43042;SDS011;28667;50.758;6.096;2023-05-21T08:03:15;7.60;;;6.10;;
43042;SDS011;28667;50.758;6.096;2023-05-21T08:05:42;7.20;;;5.38;;
43042;SDS011;28667;50.758;6.096;2023-05-21T08:08:13;9.02;;;6.00;;
43042;SDS011;28667;50.758;6.096;2023-05-21T08:10:40;9.25;;;5.25;;
43042;SDS011;28667;50.758;6.096;2023-05-21T08:13:06;9.65;;;6.07;;
43042;SDS011;28667;50.758;6.096;2023-05-21T08:15:32;9.85;;;5.68;;
43042;SDS011;28667;50.758;6.096;2023-05-21T08:17:57;6.43;;;4.95;;
43042;SDS011;28667;50.758;6.096;2023-05-21T08:20:24;7.75;;;5.47;;
43042;SDS011;28667;50.758;6.096;2023-05-21T08:22:51;7.78;;;5.38;;
43042;SDS011;28667;50.758;6.096;2023-05-21T08:25:18;11.45;;;6.75;;
43042;SDS011;28667;50.758;6.096;2023-05-21T08:27:44;10.07;;;6.32;;
43042;SDS011;28667;50.758;6.096;2023-05-21T08:30:09;9.77;;;5.57;;
43042;SDS011;28667;50.758;6.096;2023-05-21T08:32:36;9.82;;;6.40;;
43042;SDS011;28667;50.758;6.096;2023-05-21T08:35:02;10.15;;;6.05;;
43042;SDS011;28667;50.758;6.096;2023-05-21T08:37:43;10.45;;;5.78;;
43042;SDS011;28667;50.758;6.096;2023-05-21T08:40:23;10.73;;;6.20;;
43042;SDS011;28667;50.758;6.096;2023-05-21T08:42:49;13.63;;;6.97;;
43042;SDS011;28667;50.758;6.096;2023-05-21T08:45:20;16.27;;;7.00;;
43042;SDS011;28667;50.758;6.096;2023-05-21T08:47:51;9.50;;;6.72;;
43042;SDS011;28667;50.758;6.096;2023-05-21T08:52:50;11.70;;;6.05;;
43042;SDS011;28667;50.758;6.096;2023-05-21T08:55:16;9.93;;;6.45;;
43042;SDS011;28667;50.758;6.096;2023-05-21T08:57:43;7.55;;;5.65;;
43042;SDS011;28667;50.758;6.096;2023-05-21T09:00:11;8.30;;;5.40;;
43042;SDS011;28667;50.758;6.096;2023-05-21T09:02:38;8.63;;;6.25;;
43042;SDS011;28667;50.758;6.096;2023-05-21T09:05:05;10.05;;;6.60;;
43042;SDS011;28667;50.758;6.096;2023-05-21T09:07:38;9.15;;;6.13;;
43042;SDS011;28667;50.758;6.096;2023-05-21T09:10:28;8.52;;;5.68;;
43042;SDS011;28667;50.758;6.096;2023-05-21T09:12:59;6.80;;;5.78;;
43042;SDS011;28667;50.758;6.096;2023-05-21T09:15:26;8.52;;;5.38;;
43042;SDS011;28667;50.758;6.096;2023-05-21T09:17:52;11.05;;;6.40;;
43042;SDS011;28667;50.758;6.096;2023-05-21T09:20:44;10.10;;;6.63;;
43042;SDS011;28667;50.758;6.096;2023-05-21T09:23:10;6.22;;;4.55;;
43042;SDS011;28667;50.758;6.096;2023-05-21T09:25:48;6.80;;;5.43;;
43042;SDS011;28667;50.758;6.096;2023-05-21T09:28:30;11.88;;;6.18;;
43042;SDS011;28667;50.758;6.096;2023-05-21T09:30:55;11.50;;;6.63;;
43042;SDS011;28667;50.758;6.096;2023-05-21T09:33:27;9.55;;;6.57;;
43042;SDS011;28667;50.758;6.096;2023-05-21T09:35:56;6.55;;;5.47;;
43042;SDS011;28667;50.758;6.096;2023-05-21T09:38:24;8.98;;;5.70;;
43042;SDS011;28667;50.758;6.096;2023-05-21T09:40:50;9.90;;;7.00;;
43042;SDS011;28667;50.758;6.096;2023-05-21T09:43:21;7.88;;;5.40;;
43042;SDS011;28667;50.758;6.096;2023-05-21T09:45:50;10.20;;;5.75;;
43042;SDS011;28667;50.758;6.096;2023-05-21T09:48:36;10.32;;;6.13;;
43042;SDS011;28667;50.758;6.096;2023-05-21T09:51:10;10.90;;;6.55;;
43042;SDS011;28667;50.758;6.096;2023-05-21T09:56:08;11.60;;;6.03;;
43042;SDS011;28667;50.758;6.096;2023-05-21T09:58:34;8.98;;;5.80;;
43042;SDS011;28667;50.758;6.096;2023-05-21T10:01:00;10.27;;;6.93;;
43042;SDS011;28667;50.758;6.096;2023-05-21T10:03:26;9.82;;;6.53;;
43042;SDS011;28667;50.758;6.096;2023-05-21T10:05:52;10.63;;;7.43;;
43042;SDS011;28667;50.758;6.096;2023-05-21T10:08:21;11.20;;;6.72;;
43042;SDS011;28667;50.758;6.096;2023-05-21T10:10:51;10.57;;;6.22;;
43042;SDS011;28667;50.758;6.096;2023-05-21T10:13:17;8.30;;;6.25;;
43042;SDS011;28667;50.758;6.096;2023-05-21T10:15:47;9.15;;;6.20;;
43042;SDS011;28667;50.758;6.096;2023-05-21T10:18:19;10.70;;;7.13;;
43042;SDS011;28667;50.758;6.096;2023-05-21T10:20:47;12.10;;;6.40;;
43042;SDS011;28667;50.758;6.096;2023-05-21T10:23:13;11.48;;;7.45;;
43042;SDS011;28667;50.758;6.096;2023-05-21T10:25:40;11.68;;;7.45;;
43042;SDS011;28667;50.758;6.096;2023-05-21T10:28:06;16.35;;;9.57;;
43042;SDS011;28667;50.758;6.096;2023-05-21T10:30:32;13.13;;;8.00;;
43042;SDS011;28667;50.758;6.096;2023-05-21T10:33:00;10.00;;;7.45;;
43042;SDS011;28667;50.758;6.096;2023-05-21T10:35:26;8.75;;;6.50;;
43042;SDS011;28667;50.758;6.096;2023-05-21T10:37:53;15.55;;;9.38;;
43042;SDS011;28667;50.758;6.096;2023-05-21T10:40:22;10.70;;;7.03;;
43042;SDS011;28667;50.758;6.096;2023-05-21T10:42:51;9.85;;;6.93;;
43042;SDS011;28667;50.758;6.096;2023-05-21T10:45:30;11.55;;;6.78;;
43042;SDS011;28667;50.758;6.096;2023-05-21T11:02:10;13.50;;;7.93;;
43042;SDS011;28667;50.758;6.096;2023-05-21T11:04:38;11.48;;;7.93;;
43042;SDS011;28667;50.758;6.096;2023-05-21T11:07:07;15.63;;;9.07;;
43042;SDS011;28667;50.758;6.096;2023-05-21T11:09:33;15.57;;;10.18;;
43042;SDS011;28667;50.758;6.096;2023-05-21T11:11:59;12.23;;;8.98;;
43042;SDS011;28667;50.758;6.096;2023-05-21T11:14:28;15.80;;;10.00;;
43042;SDS011;28667;50.758;6.096;2023-05-21T11:19:41;17.25;;;10.55;;
43042;SDS011;28667;50.758;6.096;2023-05-21T11:22:21;15.98;;;10.45;;
43042;SDS011;28667;50.758;6.096;2023-05-21T11:24:48;13.13;;;8.68;;
43042;SDS011;28667;50.758;6.096;2023-05-21T11:29:58;15.85;;;10.02;;
43042;SDS011;28667;50.758;6.096;2023-05-21T11:32:25;16.30;;;9.93;;
43042;SDS011;28667;50.758;6.096;2023-05-21T11:34:50;18.83;;;10.38;;
43042;SDS011;28667;50.758;6.096;2023-05-21T11:39:42;13.50;;;8.65;;
43042;SDS011;28667;50.758;6.096;2023-05-21T11:42:08;11.18;;;8.52;;
43042;SDS011;28667;50.758;6.096;2023-05-21T11:47:04;12.10;;;8.88;;
43042;SDS011;28667;50.758;6.096;2023-05-21T11:49:31;12.00;;;8.75;;
43042;SDS011;28667;50.758;6.096;2023-05-21T11:51:58;15.25;;;9.05;;
43042;SDS011;28667;50.758;6.096;2023-05-21T11:54:25;14.45;;;9.32;;
43042;SDS011;28667;50.758;6.096;2023-05-21T11:56:55;16.08;;;10.07;;
43042;SDS011;28667;50.758;6.096;2023-05-21T11:59:21;16.25;;;9.10;;
43042;SDS011;28667;50.758;6.096;2023-05-21T12:01:46;14.82;;;8.10;;
43042;SDS011;28667;50.758;6.096;2023-05-21T12:04:12;12.25;;;8.65;;
43042;SDS011;28667;50.758;6.096;2023-05-21T12:06:38;20.17;;;11.77;;
43042;SDS011;28667;50.758;6.096;2023-05-21T12:09:10;14.77;;;8.98;;
43042;SDS011;28667;50.758;6.096;2023-05-21T12:11:40;11.82;;;8.40;;
43042;SDS011;28667;50.758;6.096;2023-05-21T12:14:09;9.85;;;7.05;;
43042;SDS011;28667;50.758;6.096;2023-05-21T12:16:35;14.32;;;8.93;;
43042;SDS011;28667;50.758;6.096;2023-05-21T12:19:02;14.35;;;8.73;;
43042;SDS011;28667;50.758;6.096;2023-05-21T12:21:31;17.13;;;9.98;;
43042;SDS011;28667;50.758;6.096;2023-05-21T12:23:57;14.55;;;8.93;;
43042;SDS011;28667;50.758;6.096;2023-05-21T12:26:23;15.38;;;10.63;;
43042;SDS011;28667;50.758;6.096;2023-05-21T12:28:51;15.45;;;10.10;;
43042;SDS011;28667;50.758;6.096;2023-05-21T12:31:20;12.95;;;8.13;;
43042;SDS011;28667;50.758;6.096;2023-05-21T12:33:47;14.30;;;9.20;;
43042;SDS011;28667;50.758;6.096;2023-05-21T12:36:20;17.55;;;10.65;;
43042;SDS011;28667;50.758;6.096;2023-05-21T12:38:47;16.40;;;9.45;;
43042;SDS011;28667;50.758;6.096;2023-05-21T12:41:15;14.93;;;8.82;;
43042;SDS011;28667;50.758;6.096;2023-05-21T12:43:41;18.60;;;10.93;;
43042;SDS011;28667;50.758;6.096;2023-05-21T12:46:09;12.68;;;9.25;;
43042;SDS011;28667;50.758;6.096;2023-05-21T12:48:38;13.45;;;8.05;;
43042;SDS011;28667;50.758;6.096;2023-05-21T12:51:06;15.07;;;9.23;;
43042;SDS011;28667;50.758;6.096;2023-05-21T12:53:36;13.32;;;8.73;;
43042;SDS011;28667;50.758;6.096;2023-05-21T12:56:09;16.13;;;9.38;;
43042;SDS011;28667;50.758;6.096;2023-05-21T12:58:35;18.00;;;9.23;;
43042;SDS011;28667;50.758;6.096;2023-05-21T13:01:06;10.23;;;7.38;;
43042;SDS011;28667;50.758;6.096;2023-05-21T13:03:36;17.55;;;8.80;;
43042;SDS011;28667;50.758;6.096;2023-05-21T13:06:06;14.45;;;10.15;;
43042;SDS011;28667;50.758;6.096;2023-05-21T13:08:34;13.70;;;8.20;;
43042;SDS011;28667;50.758;6.096;2023-05-21T13:11:01;12.45;;;7.20;;
43042;SDS011;28667;50.758;6.096;2023-05-21T13:13:27;18.40;;;10.18;;
43042;SDS011;28667;50.758;6.096;2023-05-21T13:15:53;14.68;;;9.05;;
43042;SDS011;28667;50.758;6.096;2023-05-21T13:18:22;16.02;;;8.93;;
43042;SDS011;28667;50.758;6.096;2023-05-21T13:20:51;13.73;;;8.35;;
43042;SDS011;28667;50.758;6.096;2023-05-21T13:23:16;19.35;;;10.68;;
43042;SDS011;28667;50.758;6.096;2023-05-21T13:25:42;12.32;;;8.48;;
43042;SDS011;28667;50.758;6.096;2023-05-21T13:28:08;16.08;;;8.50;;
43042;SDS011;28667;50.758;6.096;2023-05-21T13:30:39;16.65;;;9.65;;
43042;SDS011;28667;50.758;6.096;2023-05-21T13:33:05;17.25;;;9.43;;
43042;SDS011;28667;50.758;6.096;2023-05-21T13:35:30;12.70;;;7.10;;
43042;SDS011;28667;50.758;6.096;2023-05-21T13:37:56;19.48;;;10.60;;
43042;SDS011;28667;50.758;6.096;2023-05-21T13:40:22;9.57;;;7.57;;
43042;SDS011;28667;50.758;6.096;2023-05-21T13:42:48;10.88;;;8.20;;
43042;SDS011;28667;50.758;6.096;2023-05-21T13:45:15;9.90;;;7.35;;
43042;SDS011;28667;50.758;6.096;2023-05-21T13:47:42;13.20;;;8.48;;
43042;SDS011;28667;50.758;6.096;2023-05-21T13:50:09;13.60;;;8.60;;
43042;SDS011;28667;50.758;6.096;2023-05-21T13:52:35;12.50;;;8.43;;
43042;SDS011;28667;50.758;6.096;2023-05-21T13:55:02;17.15;;;9.90;;
43042;SDS011;28667;50.758;6.096;2023-05-21T13:57:27;15.10;;;9.57;;
43042;SDS011;28667;50.758;6.096;2023-05-21T13:59:55;12.93;;;9.13;;
43042;SDS011;28667;50.758;6.096;2023-05-21T14:02:21;11.38;;;8.32;;
43042;SDS011;28667;50.758;6.096;2023-05-21T14:04:47;14.68;;;9.13;;
43042;SDS011;28667;50.758;6.096;2023-05-21T14:07:13;13.18;;;8.65;;
43042;SDS011;28667;50.758;6.096;2023-05-21T14:09:39;14.68;;;10.13;;
43042;SDS011;28667;50.758;6.096;2023-05-21T14:12:05;11.88;;;8.65;;
43042;SDS011;28667;50.758;6.096;2023-05-21T14:14:31;12.68;;;8.40;;
43042;SDS011;28667;50.758;6.096;2023-05-21T14:16:57;13.05;;;9.05;;
43042;SDS011;28667;50.758;6.096;2023-05-21T14:19:23;13.07;;;9.02;;
43042;SDS011;28667;50.758;6.096;2023-05-21T14:21:52;12.82;;;8.88;;
43042;SDS011;28667;50.758;6.096;2023-05-21T14:24:18;12.98;;;8.88;;
43042;SDS011;28667;50.758;6.096;2023-05-21T14:26:43;15.20;;;8.90;;
43042;SDS011;28667;50.758;6.096;2023-05-21T14:29:09;14.45;;;8.75;;
43042;SDS011;28667;50.758;6.096;2023-05-21T14:31:35;13.70;;;9.90;;
43042;SDS011;28667;50.758;6.096;2023-05-21T14:34:02;13.05;;;8.95;;
43042;SDS011;28667;50.758;6.096;2023-05-21T14:36:28;10.70;;;7.75;;
43042;SDS011;28667;50.758;6.096;2023-05-21T14:38:55;14.15;;;9.32;;
43042;SDS011;28667;50.758;6.096;2023-05-21T14:41:24;11.38;;;7.20;;
43042;SDS011;28667;50.758;6.096;2023-05-21T14:43:51;16.90;;;9.65;;
43042;SDS011;28667;50.758;6.096;2023-05-21T14:46:16;12.18;;;8.77;;
43042;SDS011;28667;50.758;6.096;2023-05-21T14:48:42;14.63;;;8.63;;
43042;SDS011;28667;50.758;6.096;2023-05-21T14:51:10;11.70;;;8.32;;
43042;SDS011;28667;50.758;6.096;2023-05-21T14:53:37;12.48;;;7.88;;
43042;SDS011;28667;50.758;6.096;2023-05-21T14:56:03;9.80;;;6.53;;
43042;SDS011;28667;50.758;6.096;2023-05-21T14:58:29;15.93;;;8.93;;
43042;SDS011;28667;50.758;6.096;2023-05-21T15:00:55;12.45;;;7.93;;
43042;SDS011;28667;50.758;6.096;2023-05-21T15:03:21;11.27;;;7.40;;
43042;SDS011;28667;50.758;6.096;2023-05-21T15:05:46;11.35;;;7.80;;
43042;SDS011;28667;50.758;6.096;2023-05-21T15:08:12;11.60;;;7.10;;
43042;SDS011;28667;50.758;6.096;2023-05-21T15:10:38;11.50;;;7.13;;
43042;SDS011;28667;50.758;6.096;2023-05-21T15:13:04;15.02;;;7.90;;
43042;SDS011;28667;50.758;6.096;2023-05-21T15:15:30;9.57;;;7.47;;